Time;durP1;ratioP1;P1;durP2;ratioP2;P2;SDS_P1;SDS_P2;PMS_P1;PMS_P2;Temp;Humidity;BMP_temperature;BMP_pressure;BME280_temperature;BME280_humidity;BME280_pressure;Samples;Min_cycle;Max_cycle;Signal;HPM_P1;HPM_P2
2023/12/14 00:06:32;;;;;;;0.00;0.00;;;0.70;99.90;;;;;;20997365;28;20028;-53
2023/12/14 00:16:34;;;;;;;0.00;0.00;;;0.40;99.90;;;;;;20995482;28;20093;-63
2023/12/14 00:26:35;;;;;;;0.00;0.00;;;0.40;99.90;;;;;;20989659;28;20040;-63
2023/12/14 00:36:37;;;;;;;0.00;0.00;;;0.30;99.90;;;;;;20995125;28;20037;-64
2023/12/14 00:46:41;;;;;;;0.00;0.00;;;0.30;99.90;;;;;;20993935;28;20028;-63
2023/12/14 00:56:43;;;;;;;0.00;0.00;;;0.30;99.90;;;;;;20992974;28;20033;-63
2023/12/14 01:06:44;;;;;;;0.00;0.00;;;0.30;99.90;;;;;;20974465;28;20036;-63
2023/12/14 01:16:46;;;;;;;0.00;0.00;;;1.10;99.90;;;;;;20991074;28;20028;-62
2023/12/14 01:26:48;;;;;;;0.00;0.00;;;1.20;99.90;;;;;;20985891;28;20045;-63
2023/12/14 01:36:50;;;;;;;0.15;0.00;;;1.30;99.90;;;;;;20990146;28;20036;-63
2023/12/14 01:46:51;;;;;;;0.10;0.00;;;1.30;99.90;;;;;;20988848;28;20415;-63
2023/12/14 01:56:54;;;;;;;0.00;0.00;;;0.70;99.90;;;;;;20986966;28;20109;-62
2023/12/14 02:06:55;;;;;;;0.00;0.00;;;0.50;99.90;;;;;;20988029;28;20047;-63
2023/12/14 02:16:57;;;;;;;0.00;0.00;;;0.40;99.90;;;;;;20987162;28;20055;-63
2023/12/14 02:27:00;;;;;;;0.10;0.10;;;0.30;99.90;;;;;;20977394;28;20045;-63
2023/12/14 02:37:02;;;;;;;0.20;0.05;;;0.20;99.90;;;;;;21001932;28;20032;-63
2023/12/14 02:47:04;;;;;;;0.05;0.00;;;0.10;99.90;;;;;;21013635;28;20090;-51
2023/12/14 02:57:05;;;;;;;0.00;0.00;;;0.20;99.90;;;;;;21013337;28;20032;-62
2023/12/14 03:07:07;;;;;;;0.00;0.00;;;0.20;99.90;;;;;;21012920;28;20032;-62
2023/12/14 03:17:12;;;;;;;0.05;0.00;;;0.10;99.90;;;;;;21012313;28;20028;-63
2023/12/14 03:27:14;;;;;;;0.08;0.00;;;0.40;99.90;;;;;;20997673;28;20045;-63
2023/12/14 03:37:16;;;;;;;0.00;0.00;;;0.90;99.90;;;;;;21012175;28;20040;-62
2023/12/14 03:47:18;;;;;;;0.00;0.00;;;0.90;99.90;;;;;;21002933;28;20044;-63
2023/12/14 03:57:20;;;;;;;0.00;0.00;;;1.10;99.90;;;;;;20995300;28;20075;-63
2023/12/14 04:07:22;;;;;;;0.00;0.00;;;1.10;99.90;;;;;;20994927;28;20032;-62
2023/12/14 04:17:24;;;;;;;0.17;0.00;;;1.10;99.90;;;;;;20993682;28;20041;-62
2023/12/14 04:27:28;;;;;;;0.00;0.00;;;1.30;99.90;;;;;;20992441;28;20053;-63
2023/12/14 04:37:30;;;;;;;0.00;0.00;;;1.00;99.90;;;;;;20992727;28;20036;-63
2023/12/14 04:47:32;;;;;;;0.00;0.00;;;1.30;99.90;;;;;;20986424;28;20543;-62
2023/12/14 04:57:34;;;;;;;0.00;0.00;;;1.70;99.90;;;;;;20989787;28;20032;-59
2023/12/14 05:07:36;;;;;;;0.00;0.00;;;1.90;99.90;;;;;;20970434;28;20029;-55
2023/12/14 05:17:38;;;;;;;0.00;0.00;;;2.10;99.90;;;;;;20988767;28;20024;-52
2023/12/14 05:27:39;;;;;;;0.00;0.00;;;1.90;99.90;;;;;;20986927;28;20037;-62
2023/12/14 05:37:41;;;;;;;0.00;0.00;;;1.90;99.90;;;;;;20987300;28;20037;-62
2023/12/14 05:47:43;;;;;;;0.00;0.00;;;2.00;99.90;;;;;;20984224;28;20432;-62
2023/12/14 05:57:45;;;;;;;0.00;0.00;;;2.00;99.90;;;;;;20982015;28;20040;-55
2023/12/14 06:07:47;;;;;;;0.00;0.00;;;2.30;99.90;;;;;;20966110;28;20033;-61
2023/12/14 06:17:49;;;;;;;0.00;0.00;;;2.70;99.90;;;;;;20977501;28;20070;-62
2023/12/14 06:27:51;;;;;;;0.00;0.00;;;2.40;99.90;;;;;;20983833;28;20098;-62
2023/12/14 06:37:53;;;;;;;0.03;0.00;;;2.40;99.90;;;;;;20983841;28;20090;-62
2023/12/14 06:47:55;;;;;;;0.00;0.00;;;2.50;99.90;;;;;;20983383;28;20428;-62
2023/12/14 06:57:57;;;;;;;0.00;0.00;;;2.40;99.90;;;;;;20982861;28;20543;-62
2023/12/14 07:07:58;;;;;;;0.20;0.00;;;2.60;99.90;;;;;;20983307;28;20029;-53
2023/12/14 07:18:00;;;;;;;0.10;0.00;;;2.60;99.90;;;;;;20982279;28;20029;-62
2023/12/14 07:28:02;;;;;;;0.10;0.00;;;2.10;99.90;;;;;;20996372;28;20374;-63
2023/12/14 07:38:04;;;;;;;0.52;0.00;;;2.00;99.90;;;;;;20993130;28;20552;-62
2023/12/14 07:48:05;;;;;;;0.10;0.08;;;2.20;99.90;;;;;;20995995;28;20025;-52
2023/12/14 07:58:07;;;;;;;0.00;0.00;;;3.00;99.90;;;;;;20995244;28;20032;-63
2023/12/14 08:08:09;;;;;;;0.10;0.00;;;3.50;99.90;;;;;;20995377;28;20036;-62
2023/12/14 08:18:11;;;;;;;0.00;0.00;;;3.70;99.90;;;;;;20987702;28;20028;-62
2023/12/14 08:28:13;;;;;;;0.00;0.00;;;4.10;99.90;;;;;;20992785;28;20028;-62
2023/12/14 08:38:16;;;;;;;0.00;0.00;;;4.30;99.90;;;;;;20992132;28;20059;-52
2023/12/14 08:48:19;;;;;;;0.00;0.00;;;4.60;99.90;;;;;;20994316;28;20036;-55
2023/12/14 08:58:20;;;;;;;0.00;0.00;;;4.80;99.90;;;;;;20987009;28;20076;-61
2023/12/14 09:08:28;;;;;;;0.30;0.00;;;5.00;99.90;;;;;;20924951;28;20380;-56
2023/12/14 09:18:30;;;;;;;0.10;0.00;;;5.10;99.90;;;;;;20832659;28;20075;-53
2023/12/14 09:28:32;;;;;;;0.10;0.00;;;5.40;99.90;;;;;;20875370;28;20095;-57
2023/12/14 09:38:34;;;;;;;0.00;0.00;;;5.50;99.90;;;;;;20969659;28;20032;-61
2023/12/14 09:48:36;;;;;;;0.10;0.00;;;6.00;99.90;;;;;;20986257;28;20702;-52
2023/12/14 09:58:38;;;;;;;0.10;0.00;;;6.20;99.90;;;;;;20986048;28;20040;-50
2023/12/14 10:08:40;;;;;;;0.00;0.00;;;6.00;99.90;;;;;;20985532;28;20032;-61
2023/12/14 10:18:42;;;;;;;0.00;0.00;;;6.20;99.80;;;;;;20984383;28;20041;-60
2023/12/14 10:28:47;;;;;;;0.00;0.00;;;6.50;98.60;;;;;;20984300;28;20386;-50
2023/12/14 10:38:52;;;;;;;0.00;0.00;;;6.70;98.80;;;;;;20984047;28;20036;-61
2023/12/14 10:48:54;;;;;;;0.08;0.00;;;6.60;97.00;;;;;;20983698;28;20086;-49
2023/12/14 10:58:58;;;;;;;0.10;0.00;;;7.00;97.70;;;;;;20993632;28;20110;-50
2023/12/14 11:09:08;;;;;;;0.10;0.00;;;7.00;96.40;;;;;;20999447;28;20029;-54
2023/12/14 11:19:22;;;;;;;0.20;0.10;;;6.90;96.80;;;;;;20997924;28;20040;-60
2023/12/14 11:29:23;;;;;;;0.00;0.00;;;7.00;97.50;;;;;;20997671;28;20429;-53
2023/12/14 11:39:30;;;;;;;0.05;0.00;;;7.00;97.10;;;;;;20997337;28;20028;-50
2023/12/14 11:49:32;;;;;;;0.00;0.00;;;7.40;96.10;;;;;;20995205;28;20090;-51
2023/12/14 11:59:35;;;;;;;0.00;0.00;;;7.20;94.80;;;;;;20994555;28;20378;-53
2023/12/14 12:09:50;;;;;;;0.00;0.00;;;7.10;94.90;;;;;;20994218;28;20035;-60
2023/12/14 12:19:52;;;;;;;0.00;0.00;;;7.00;95.60;;;;;;20979427;28;20421;-61
2023/12/14 12:29:57;;;;;;;0.13;0.00;;;7.20;95.20;;;;;;20914920;28;20020;-50
2023/12/14 12:39:59;;;;;;;0.00;0.00;;;7.20;94.40;;;;;;20993794;28;20032;-61
2023/12/14 12:50:04;;;;;;;0.75;0.00;;;7.10;94.10;;;;;;20911150;28;20044;-51
2023/12/14 13:00:11;;;;;;;0.10;0.00;;;7.00;93.90;;;;;;20890024;28;20082;-53
2023/12/14 13:10:13;;;;;;;0.00;0.00;;;6.90;94.00;;;;;;20948007;28;20032;-52
2023/12/14 13:20:14;;;;;;;0.00;0.00;;;6.90;93.30;;;;;;20923171;28;21305;-53
2023/12/14 13:30:17;;;;;;;0.00;0.00;;;6.60;93.20;;;;;;20988154;28;20405;-62
2023/12/14 13:40:19;;;;;;;0.00;0.00;;;6.40;94.00;;;;;;20987426;28;20037;-51
2023/12/14 13:50:21;;;;;;;0.20;0.00;;;6.30;94.60;;;;;;20979338;28;20059;-62
2023/12/14 14:00:24;;;;;;;0.00;0.00;;;6.20;94.60;;;;;;20986060;28;20093;-62
2023/12/14 14:10:26;;;;;;;0.00;0.00;;;6.00;94.10;;;;;;20985278;28;20036;-52
2023/12/14 14:20:28;;;;;;;0.00;0.00;;;5.90;95.30;;;;;;20858909;28;20049;-53
2023/12/14 14:30:30;;;;;;;0.10;0.00;;;5.70;96.10;;;;;;20932199;28;20166;-62
2023/12/14 14:40:34;;;;;;;0.00;0.00;;;5.40;95.90;;;;;;20981516;28;20033;-51
2023/12/14 14:50:36;;;;;;;0.20;0.00;;;5.30;96.40;;;;;;20976085;28;20048;-51
2023/12/14 15:00:41;;;;;;;0.00;0.00;;;5.10;96.00;;;;;;20964507;28;20040;-57
2023/12/14 15:10:42;;;;;;;0.32;0.00;;;4.70;96.60;;;;;;20979008;28;20551;-60
2023/12/14 15:20:45;;;;;;;0.00;0.00;;;4.20;98.10;;;;;;20982751;28;20110;-62
2023/12/14 15:30:47;;;;;;;0.00;0.00;;;3.80;99.00;;;;;;20981934;28;20043;-62
2023/12/14 15:40:49;;;;;;;0.10;0.00;;;3.40;99.90;;;;;;20983443;28;20055;-62
2023/12/14 15:50:50;;;;;;;0.00;0.00;;;3.00;99.90;;;;;;20996663;28;20037;-62
2023/12/14 16:00:57;;;;;;;0.17;0.00;;;2.60;99.90;;;;;;20995629;28;20086;-61
2023/12/14 16:10:59;;;;;;;0.75;0.00;;;2.30;99.90;;;;;;20995435;28;20029;-61
2023/12/14 16:21:02;;;;;;;0.00;0.00;;;2.10;99.90;;;;;;20996382;28;20056;-51
2023/12/14 16:31:08;;;;;;;0.00;0.00;;;2.10;99.90;;;;;;20991909;28;20547;-62
2023/12/14 16:41:10;;;;;;;0.00;0.00;;;2.20;99.90;;;;;;20994585;28;20032;-62
2023/12/14 16:51:13;;;;;;;0.10;0.00;;;2.10;99.90;;;;;;20982404;28;20035;-62
2023/12/14 17:01:15;;;;;;;0.47;0.00;;;2.00;99.90;;;;;;20980965;28;20028;-49
2023/12/14 17:11:17;;;;;;;0.00;0.00;;;1.90;99.90;;;;;;20991732;28;20062;-52
2023/12/14 17:21:27;;;;;;;0.00;0.00;;;1.70;99.90;;;;;;20991155;28;20049;-51
2023/12/14 17:31:28;;;;;;;0.10;0.10;;;1.50;99.90;;;;;;20986719;28;20037;-51
2023/12/14 17:41:30;;;;;;;0.00;0.00;;;1.80;99.90;;;;;;20989171;28;20465;-61
2023/12/14 17:51:32;;;;;;;0.40;0.10;;;1.60;99.90;;;;;;20990752;28;20367;-56
2023/12/14 18:01:42;;;;;;;0.00;0.00;;;1.50;99.90;;;;;;20988408;28;20032;-50
2023/12/14 18:11:44;;;;;;;0.00;0.00;;;1.40;99.90;;;;;;20986781;28;20098;-51
2023/12/14 18:21:48;;;;;;;0.10;0.00;;;1.10;99.90;;;;;;20986785;28;20040;-47
2023/12/14 18:31:50;;;;;;;0.00;0.00;;;1.10;99.90;;;;;;21015346;28;20121;-60
2023/12/14 18:41:53;;;;;;;0.00;0.00;;;1.50;99.90;;;;;;21056981;28;20539;-62
2023/12/14 18:51:55;;;;;;;0.00;0.00;;;1.70;99.90;;;;;;20986515;28;20052;-62
2023/12/14 19:01:56;;;;;;;0.20;0.00;;;1.70;99.90;;;;;;20973519;28;20058;-53
2023/12/14 19:11:58;;;;;;;0.20;0.00;;;1.60;99.90;;;;;;20985514;28;20032;-52
2023/12/14 19:22:03;;;;;;;0.10;0.00;;;1.30;99.90;;;;;;20998302;28;20098;-65
2023/12/14 19:32:05;;;;;;;0.00;0.00;;;1.20;99.90;;;;;;20944072;28;20045;-62
2023/12/14 19:42:10;;;;;;;0.00;0.00;;;1.10;99.90;;;;;;20916345;28;20072;-62
2023/12/14 19:52:13;;;;;;;0.00;0.00;;;1.40;99.90;;;;;;20916108;28;20040;-63
2023/12/14 20:02:18;;;;;;;0.47;0.00;;;1.80;99.90;;;;;;20913452;28;20040;-62
2023/12/14 20:12:19;;;;;;;0.00;0.00;;;1.70;99.90;;;;;;20913805;28;20040;-62
2023/12/14 20:22:21;;;;;;;0.10;0.00;;;1.50;99.90;;;;;;20910757;28;20041;-61
2023/12/14 20:32:27;;;;;;;0.00;0.00;;;1.30;99.90;;;;;;20872879;28;20040;-62
2023/12/14 20:42:29;;;;;;;0.00;0.00;;;1.20;99.90;;;;;;20848969;28;20395;-62
2023/12/14 20:52:31;;;;;;;0.10;0.00;;;1.10;99.90;;;;;;20911116;28;20059;-62
2023/12/14 21:02:32;;;;;;;0.00;0.00;;;1.30;99.90;;;;;;20910217;28;20498;-52
2023/12/14 21:12:37;;;;;;;0.05;0.00;;;1.30;99.90;;;;;;20909398;28;20029;-62
2023/12/14 21:22:38;;;;;;;0.00;0.00;;;1.40;99.90;;;;;;20941593;28;20044;-62
2023/12/14 21:32:42;;;;;;;0.00;0.00;;;1.50;99.90;;;;;;20928986;28;20086;-62
2023/12/14 21:42:44;;;;;;;0.10;0.00;;;1.30;99.90;;;;;;20888594;28;20033;-62
2023/12/14 21:52:46;;;;;;;0.20;0.00;;;1.20;99.90;;;;;;20906337;28;20029;-62
2023/12/14 22:02:47;;;;;;;0.00;0.00;;;1.40;99.90;;;;;;20905593;28;20098;-62
2023/12/14 22:12:49;;;;;;;0.00;0.00;;;1.40;99.90;;;;;;20915209;28;20045;-52
2023/12/14 22:22:51;;;;;;;0.00;0.00;;;1.40;99.90;;;;;;20929877;28;20072;-62
2023/12/14 22:32:53;;;;;;;0.00;0.00;;;1.50;99.90;;;;;;20966102;28;20028;-62
2023/12/14 22:42:54;;;;;;;0.00;0.00;;;2.00;99.90;;;;;;20984234;28;20044;-62
2023/12/14 22:52:56;;;;;;;0.00;0.00;;;1.70;99.90;;;;;;20993670;28;20040;-62
2023/12/14 23:02:58;;;;;;;0.00;0.00;;;1.40;99.90;;;;;;21002663;28;20040;-61
2023/12/14 23:12:59;;;;;;;0.00;0.00;;;1.20;99.90;;;;;;21001445;28;20028;-62
2023/12/14 23:23:01;;;;;;;0.00;0.00;;;1.10;99.90;;;;;;21001529;28;20040;-61
2023/12/14 23:33:03;;;;;;;0.08;0.00;;;1.00;99.90;;;;;;20936017;28;20386;-62
2023/12/14 23:43:04;;;;;;;0.00;0.00;;;1.40;99.90;;;;;;20916436;28;20074;-49
2023/12/14 23:53:06;;;;;;;0.00;0.00;;;1.70;99.90;;;;;;20916311;28;20070;-62
